createdAt,value
2022-08-02T00:00:18.419Z,19.90
2022-08-02T00:02:46.754Z,19.90
2022-08-02T00:05:13.999Z,19.80
2022-08-02T00:07:41.526Z,19.90
2022-08-02T00:10:10.297Z,19.80
2022-08-02T00:12:38.103Z,19.80
2022-08-02T00:15:06.950Z,19.80
2022-08-02T00:17:33.723Z,19.70
2022-08-02T00:20:00.430Z,19.60
2022-08-02T00:22:27.078Z,19.60
2022-08-02T00:24:53.899Z,19.60
2022-08-02T00:27:20.510Z,19.50
2022-08-02T00:29:53.017Z,19.50
2022-08-02T00:32:20.915Z,19.40
2022-08-02T00:34:47.637Z,19.50
2022-08-02T00:37:14.726Z,19.40
2022-08-02T00:39:42.875Z,19.30
2022-08-02T00:42:11.072Z,19.30
2022-08-02T00:44:38.301Z,19.30
2022-08-02T00:47:05.294Z,19.20
2022-08-02T00:49:32.924Z,19.20
2022-08-02T00:52:00.518Z,19.10
2022-08-02T00:54:27.293Z,19.10
2022-08-02T00:56:54.036Z,19.00
2022-08-02T00:59:20.906Z,19.00
2022-08-02T01:01:57.385Z,19.00
2022-08-02T01:04:30.432Z,18.90
2022-08-02T01:06:59.119Z,18.80
2022-08-02T01:09:25.951Z,18.80
2022-08-02T01:11:52.618Z,18.80
2022-08-02T01:14:20.153Z,18.80
2022-08-02T01:16:52.531Z,18.70
2022-08-02T01:19:33.006Z,18.70
2022-08-02T01:22:58.518Z,18.60
2022-08-02T01:25:48.914Z,18.60
2022-08-02T01:28:30.396Z,18.50
2022-08-02T01:31:37.704Z,18.50
2022-08-02T01:34:21.354Z,18.40
2022-08-02T01:36:55.862Z,18.30
2022-08-02T01:39:32.144Z,18.30
2022-08-02T01:42:01.158Z,18.20
2022-08-02T01:44:34.973Z,18.10
2022-08-02T01:47:06.264Z,18.10
2022-08-02T01:49:34.786Z,18.10
2022-08-02T01:52:21.522Z,18.10
2022-08-02T01:55:03.152Z,18.00
2022-08-02T01:57:53.803Z,18.00
2022-08-02T02:00:23.636Z,17.90
2022-08-02T02:02:52.704Z,17.80
2022-08-02T02:05:22.791Z,17.80
2022-08-02T02:07:56.776Z,17.70
2022-08-02T02:10:29.274Z,17.70
2022-08-02T02:13:00.005Z,17.70
2022-08-02T02:15:28.062Z,17.70
2022-08-02T02:18:13.281Z,17.60
2022-08-02T02:20:42.526Z,17.60
2022-08-02T02:23:09.892Z,17.60
2022-08-02T02:25:41.861Z,17.60
2022-08-02T02:28:24.499Z,17.60
2022-08-02T02:30:54.691Z,17.60
2022-08-02T02:33:26.289Z,17.60
2022-08-02T02:35:57.483Z,17.60
2022-08-02T02:38:27.289Z,17.70
2022-08-02T02:40:56.511Z,17.70
2022-08-02T02:43:25.583Z,17.80
2022-08-02T02:45:53.143Z,17.80
2022-08-02T02:48:20.059Z,17.90
2022-08-02T02:50:48.480Z,17.90
2022-08-02T02:53:17.972Z,17.90
2022-08-02T02:56:01.861Z,18.00
2022-08-02T02:58:30.031Z,17.90
2022-08-02T03:01:15.666Z,17.90
2022-08-02T03:03:44.888Z,17.80
2022-08-02T03:06:15.174Z,17.80
2022-08-02T03:08:42.539Z,17.80
2022-08-02T03:11:10.408Z,17.80
2022-08-02T03:13:38.882Z,17.70
2022-08-02T03:16:06.469Z,17.70
2022-08-02T03:18:35.399Z,17.70
2022-08-02T03:21:07.846Z,17.60
2022-08-02T03:23:35.419Z,17.50
2022-08-02T03:26:02.243Z,17.50
2022-08-02T03:28:29.101Z,17.40
2022-08-02T03:30:55.937Z,17.40
2022-08-02T03:33:24.627Z,17.30
2022-08-02T03:35:53.403Z,17.30
2022-08-02T03:38:22.866Z,17.30
2022-08-02T03:40:57.755Z,17.20
2022-08-02T03:43:28.891Z,17.30
2022-08-02T03:45:57.286Z,17.20
2022-08-02T03:48:34.015Z,17.20
2022-08-02T03:51:02.335Z,17.20
2022-08-02T03:53:29.591Z,17.20
2022-08-02T03:55:56.774Z,17.10
2022-08-02T03:58:24.625Z,17.10
2022-08-02T04:00:53.314Z,17.00
2022-08-02T04:03:20.531Z,17.00
2022-08-02T04:06:03.570Z,16.90
2022-08-02T04:08:35.378Z,16.90
2022-08-02T04:11:23.205Z,16.90
2022-08-02T04:13:52.574Z,16.90
2022-08-02T04:16:30.686Z,16.90
2022-08-02T04:19:01.726Z,16.90
2022-08-02T04:21:48.679Z,16.80
2022-08-02T04:24:25.260Z,16.80
2022-08-02T04:29:49.708Z,16.70
2022-08-02T04:32:17.388Z,16.70
2022-08-02T04:34:59.596Z,16.70
2022-08-02T04:37:33.099Z,16.70
2022-08-02T04:40:00.335Z,16.70
2022-08-02T04:42:27.375Z,16.70
2022-08-02T04:44:54.938Z,16.70
2022-08-02T04:47:39.949Z,16.70
2022-08-02T04:50:09.731Z,16.80
2022-08-02T04:52:36.760Z,16.80
2022-08-02T04:55:03.814Z,16.90
2022-08-02T04:57:52.820Z,16.90
2022-08-02T05:00:20.691Z,16.90
2022-08-02T05:02:48.809Z,17.00
2022-08-02T05:05:16.369Z,17.10
2022-08-02T05:07:43.323Z,17.10
2022-08-02T05:10:10.570Z,17.20
2022-08-02T05:12:40.796Z,17.10
2022-08-02T05:18:02.890Z,17.20
2022-08-02T05:20:30.511Z,17.30
2022-08-02T05:22:57.438Z,17.30
2022-08-02T05:25:24.387Z,17.40
2022-08-02T05:27:51.132Z,17.40
2022-08-02T05:30:18.190Z,17.50
2022-08-02T05:32:47.679Z,17.50
2022-08-02T05:35:18.520Z,17.50
2022-08-02T05:37:45.875Z,17.50
2022-08-02T05:40:15.474Z,17.60
2022-08-02T05:45:35.091Z,17.80
2022-08-02T05:48:02.536Z,17.90
2022-08-02T05:50:29.875Z,18.00
2022-08-02T05:53:32.469Z,18.10
2022-08-02T05:56:28.706Z,18.40
2022-08-02T05:59:16.728Z,18.50
2022-08-02T06:01:43.857Z,18.80
2022-08-02T06:04:20.558Z,19.00
2022-08-02T06:06:52.621Z,19.20
2022-08-02T06:09:26.753Z,19.30
2022-08-02T06:12:01.341Z,19.50
2022-08-02T06:14:33.322Z,19.50
2022-08-02T06:17:05.447Z,19.50
2022-08-02T06:19:50.906Z,19.60
2022-08-02T06:22:35.943Z,19.60
2022-08-02T06:25:48.483Z,19.60
2022-08-02T06:27:56.136Z,19.50
2022-08-02T06:30:23.211Z,19.50
2022-08-02T06:32:52.137Z,19.50
2022-08-02T06:35:19.045Z,19.50
2022-08-02T06:37:58.362Z,19.40
2022-08-02T06:40:32.286Z,19.40
2022-08-02T06:43:13.162Z,19.40
2022-08-02T06:45:40.826Z,19.50
2022-08-02T06:48:07.977Z,19.50
2022-08-02T06:50:38.169Z,19.50
2022-08-02T06:53:06.176Z,19.50
2022-08-02T06:55:32.895Z,19.50
2022-08-02T06:58:11.639Z,19.60
2022-08-02T07:00:38.577Z,19.70
2022-08-02T07:03:05.452Z,19.80
2022-08-02T07:05:32.458Z,19.80
2022-08-02T07:07:59.101Z,19.80
2022-08-02T07:10:25.869Z,20.00
2022-08-02T07:12:52.478Z,20.00
2022-08-02T07:15:19.112Z,20.00
2022-08-02T07:17:45.871Z,20.10
2022-08-02T07:20:13.511Z,20.10
2022-08-02T07:22:40.561Z,20.20
2022-08-02T07:25:08.568Z,20.30
2022-08-02T07:27:35.282Z,20.30
2022-08-02T07:30:02.021Z,20.40
2022-08-02T07:32:30.812Z,20.40
2022-08-02T07:34:58.830Z,20.40
2022-08-02T07:37:52.948Z,20.50
2022-08-02T07:40:19.917Z,20.60
2022-08-02T07:42:57.714Z,20.80
2022-08-02T07:45:27.245Z,20.90
2022-08-02T07:47:54.076Z,21.00
2022-08-02T07:50:21.719Z,21.00
2022-08-02T07:52:48.624Z,21.10
2022-08-02T07:55:16.414Z,21.20
2022-08-02T07:57:46.551Z,21.20
2022-08-02T08:00:16.026Z,21.30
2022-08-02T08:02:43.116Z,21.50
2022-08-02T08:05:10.857Z,21.50
2022-08-02T08:07:38.515Z,21.50
2022-08-02T08:10:06.725Z,21.60
2022-08-02T08:12:33.655Z,21.70
2022-08-02T08:15:00.415Z,21.90
2022-08-02T08:17:27.080Z,21.90
2022-08-02T08:19:53.753Z,22.00
2022-08-02T08:22:21.001Z,22.10
2022-08-02T08:24:48.680Z,22.20
2022-08-02T08:27:19.602Z,22.20
2022-08-02T08:29:46.475Z,22.30
2022-08-02T08:32:17.543Z,22.40
2022-08-02T08:34:48.062Z,22.60
2022-08-02T08:37:17.098Z,22.70
2022-08-02T08:39:56.855Z,22.90
2022-08-02T08:42:30.580Z,22.90
2022-08-02T08:44:58.691Z,23.10
2022-08-02T08:47:34.428Z,23.10
2022-08-02T08:50:05.443Z,23.20
2022-08-02T08:52:36.797Z,23.60
2022-08-02T08:55:08.987Z,23.70
2022-08-02T08:57:42.570Z,23.80
2022-08-02T09:00:13.482Z,24.10
2022-08-02T09:02:44.226Z,24.10
2022-08-02T09:05:12.923Z,24.30
2022-08-02T09:07:41.680Z,24.60
2022-08-02T09:10:33.654Z,24.80
2022-08-02T09:13:44.381Z,25.00
2022-08-02T09:16:11.635Z,25.30
2022-08-02T09:18:41.686Z,25.40
2022-08-02T09:21:10.070Z,25.50
2022-08-02T09:23:45.217Z,25.70
2022-08-02T09:26:17.475Z,26.00
2022-08-02T09:28:47.483Z,26.30
2022-08-02T09:31:18.162Z,26.90
2022-08-02T09:33:50.093Z,27.00
2022-08-02T09:36:17.568Z,27.30
2022-08-02T09:38:54.570Z,27.40
2022-08-02T09:41:23.941Z,28.00
2022-08-02T09:43:51.995Z,28.00
2022-08-02T09:46:33.586Z,28.10
2022-08-02T09:49:03.148Z,28.50
2022-08-02T09:51:31.267Z,28.70
2022-08-02T09:54:08.321Z,29.40
2022-08-02T09:56:43.603Z,29.20
2022-08-02T09:59:10.874Z,29.60
2022-08-02T10:01:38.918Z,29.90
2022-08-02T10:04:14.532Z,29.10
2022-08-02T10:06:49.948Z,27.90
2022-08-02T10:09:17.052Z,28.00
2022-08-02T10:11:43.839Z,28.30
2022-08-02T10:14:11.496Z,28.30
2022-08-02T10:16:47.150Z,29.00
2022-08-02T10:19:13.849Z,29.50
2022-08-02T10:21:52.555Z,29.50
2022-08-02T10:24:22.690Z,28.60
2022-08-02T10:26:49.738Z,28.60
2022-08-02T10:29:18.727Z,28.90
2022-08-02T10:31:56.042Z,28.90
2022-08-02T10:34:31.740Z,29.40
2022-08-02T10:37:03.338Z,30.00
2022-08-02T10:39:42.255Z,30.40
2022-08-02T10:42:09.434Z,30.30
2022-08-02T10:44:40.291Z,31.10
2022-08-02T10:47:23.370Z,31.60
2022-08-02T10:49:53.443Z,32.70
2022-08-02T10:52:30.685Z,32.30
2022-08-02T10:55:01.784Z,31.90
2022-08-02T10:57:31.150Z,31.90
2022-08-02T11:00:12.337Z,32.20
2022-08-02T11:02:47.148Z,32.40
2022-08-02T11:05:42.987Z,32.30
2022-08-02T11:08:37.042Z,32.30
2022-08-02T11:11:09.792Z,32.70
2022-08-02T11:14:08.725Z,31.90
2022-08-02T11:16:58.319Z,30.90
2022-08-02T11:19:26.487Z,31.50
2022-08-02T11:22:05.090Z,32.00
2022-08-02T11:24:36.522Z,32.60
2022-08-02T11:27:06.239Z,31.80
2022-08-02T11:29:42.093Z,31.10
2022-08-02T11:32:17.470Z,32.20
2022-08-02T11:34:46.831Z,32.10
2022-08-02T11:37:13.499Z,32.30
2022-08-02T11:39:40.194Z,32.10
2022-08-02T11:42:07.577Z,32.30
2022-08-02T11:44:41.598Z,32.70
2022-08-02T11:47:08.569Z,33.40
2022-08-02T11:49:37.450Z,33.10
2022-08-02T11:52:06.772Z,33.70
2022-08-02T11:54:35.922Z,33.40
2022-08-02T11:57:20.888Z,33.30
2022-08-02T11:59:50.421Z,32.70
2022-08-02T12:02:18.649Z,31.90
2022-08-02T12:04:53.208Z,31.80
2022-08-02T12:07:45.759Z,32.40
2022-08-02T12:10:19.162Z,32.70
2022-08-02T12:13:00.824Z,32.80
2022-08-02T12:15:31.517Z,32.80
2022-08-02T12:18:17.493Z,32.90
2022-08-02T12:20:44.540Z,33.10
2022-08-02T12:23:11.229Z,33.60
2022-08-02T12:25:37.945Z,33.60
2022-08-02T12:28:25.212Z,33.70
2022-08-02T12:30:54.727Z,34.20
2022-08-02T12:33:22.788Z,34.00
2022-08-02T12:35:50.036Z,33.00
2022-08-02T12:38:17.353Z,32.50
2022-08-02T12:40:44.337Z,33.20
2022-08-02T12:43:18.758Z,33.20
2022-08-02T12:45:53.103Z,33.00
2022-08-02T12:48:38.581Z,34.00
2022-08-02T12:51:55.858Z,34.30
2022-08-02T12:54:31.101Z,34.90
2022-08-02T12:57:11.951Z,35.20
2022-08-02T12:59:40.868Z,35.50
2022-08-02T13:02:11.473Z,35.40
2022-08-02T13:04:39.002Z,35.10
2022-08-02T13:07:06.133Z,35.90
2022-08-02T13:09:37.946Z,35.90
2022-08-02T13:12:05.885Z,36.40
2022-08-02T13:14:38.212Z,36.40
2022-08-02T13:17:09.555Z,35.50
2022-08-02T13:19:37.126Z,34.50
2022-08-02T13:22:04.261Z,34.00
2022-08-02T13:24:41.349Z,33.90
2022-08-02T13:27:20.964Z,32.70
2022-08-02T13:29:48.780Z,32.50
2022-08-02T13:32:16.385Z,32.30
2022-08-02T13:34:43.620Z,31.80
2022-08-02T13:37:10.510Z,31.30
2022-08-02T13:39:37.390Z,30.90
2022-08-02T13:42:04.217Z,30.40
2022-08-02T13:44:32.914Z,30.10
2022-08-02T13:46:59.542Z,30.10
2022-08-02T13:49:50.022Z,30.00
2022-08-02T13:52:13.856Z,29.70
2022-08-02T13:54:40.807Z,29.40
2022-08-02T13:57:07.525Z,29.30
2022-08-02T13:59:57.506Z,29.40
2022-08-02T14:02:20.956Z,29.20
2022-08-02T14:04:47.636Z,29.20
2022-08-02T14:07:16.134Z,29.30
2022-08-02T14:09:43.637Z,29.00
2022-08-02T14:12:11.209Z,29.10
2022-08-02T14:14:38.282Z,29.20
2022-08-02T14:17:05.059Z,29.20
2022-08-02T14:19:31.957Z,29.10
2022-08-02T14:22:11.431Z,29.10
2022-08-02T14:24:40.187Z,28.90
2022-08-02T14:27:07.033Z,29.00
2022-08-02T14:29:34.165Z,29.00
2022-08-02T14:32:00.910Z,29.00
2022-08-02T14:34:27.724Z,28.90
2022-08-02T14:36:56.152Z,29.10
2022-08-02T14:39:22.845Z,29.20
2022-08-02T14:41:59.570Z,29.20
2022-08-02T14:44:28.366Z,29.20
2022-08-02T14:46:55.569Z,29.20
2022-08-02T14:49:25.634Z,29.10
2022-08-02T14:51:54.231Z,29.20
2022-08-02T14:54:27.989Z,28.90
2022-08-02T14:57:02.931Z,29.00
2022-08-02T14:59:30.239Z,29.10
2022-08-02T15:01:57.837Z,29.10
2022-08-02T15:04:25.211Z,29.10
2022-08-02T15:06:52.060Z,29.10
2022-08-02T15:09:19.479Z,29.00
2022-08-02T15:11:47.772Z,29.00
2022-08-02T15:14:16.157Z,29.10
2022-08-02T15:16:56.422Z,29.20
2022-08-02T15:19:25.844Z,29.10
2022-08-02T15:22:03.313Z,28.90
2022-08-02T15:24:29.930Z,28.90
2022-08-02T15:26:57.085Z,28.80
2022-08-02T15:29:23.815Z,29.10
2022-08-02T15:31:50.515Z,29.10
2022-08-02T15:34:18.858Z,29.00
2022-08-02T15:36:45.717Z,28.90
2022-08-02T15:39:12.548Z,28.80
2022-08-02T15:41:39.263Z,29.10
2022-08-02T15:44:08.890Z,29.10
2022-08-02T15:46:37.229Z,29.20
2022-08-02T15:49:04.056Z,29.20
2022-08-02T15:51:30.757Z,29.10
2022-08-02T15:53:57.406Z,29.30
2022-08-02T15:56:24.561Z,29.30
2022-08-02T15:58:55.978Z,29.30
2022-08-02T16:01:24.469Z,29.30
2022-08-02T16:03:51.177Z,29.10
2022-08-02T16:06:17.931Z,29.20
2022-08-02T16:08:53.714Z,29.10
2022-08-02T16:11:22.310Z,29.10
2022-08-02T16:13:55.217Z,28.90
2022-08-02T16:16:23.625Z,28.80
2022-08-02T16:18:50.447Z,28.90
2022-08-02T16:21:17.215Z,28.90
2022-08-02T16:23:59.592Z,28.90
2022-08-02T16:26:34.132Z,28.80
2022-08-02T16:29:02.913Z,28.90
2022-08-02T16:31:30.013Z,28.80
2022-08-02T16:33:57.429Z,28.80
2022-08-02T16:36:26.556Z,28.80
2022-08-02T16:38:54.553Z,28.60
2022-08-02T16:41:22.383Z,28.50
2022-08-02T16:43:49.963Z,28.50
2022-08-02T16:46:16.834Z,28.30
2022-08-02T16:48:51.071Z,28.30
2022-08-02T16:51:19.165Z,28.30
2022-08-02T16:53:59.932Z,28.20
2022-08-02T16:56:28.602Z,28.20
2022-08-02T16:58:55.588Z,28.20
2022-08-02T17:01:28.253Z,28.20
2022-08-02T17:04:15.829Z,28.10
2022-08-02T17:06:47.572Z,28.10
2022-08-02T17:12:06.291Z,28.10
2022-08-02T17:14:54.563Z,28.10
2022-08-02T17:17:33.611Z,28.10
2022-08-02T17:20:01.493Z,28.00
2022-08-02T17:22:28.846Z,28.00
2022-08-02T17:24:55.903Z,28.00
2022-08-02T17:27:22.731Z,28.00
2022-08-02T17:29:49.484Z,27.90
2022-08-02T17:35:04.167Z,27.90
2022-08-02T17:37:31.849Z,27.90
2022-08-02T17:39:59.733Z,27.80
2022-08-02T17:42:28.798Z,27.70
2022-08-02T17:45:00.961Z,27.70
2022-08-02T17:47:33.714Z,27.60
2022-08-02T17:50:12.264Z,27.60
2022-08-02T17:52:50.634Z,27.50
2022-08-02T17:55:25.965Z,27.40
2022-08-02T17:57:57.234Z,27.40
2022-08-02T18:00:33.789Z,27.40
2022-08-02T18:03:02.146Z,27.30
2022-08-02T18:05:39.078Z,27.20
2022-08-02T18:08:21.517Z,27.20
2022-08-02T18:10:49.868Z,27.10
2022-08-02T18:13:16.651Z,27.10
2022-08-02T18:15:45.737Z,27.10
2022-08-02T18:18:13.387Z,27.00
2022-08-02T18:20:41.570Z,26.90
2022-08-02T18:23:11.096Z,26.90
2022-08-02T18:25:45.668Z,26.70
2022-08-02T18:28:27.751Z,26.60
2022-08-02T18:30:54.595Z,26.40
2022-08-02T18:33:55.425Z,26.30
2022-08-02T18:36:09.190Z,26.20
2022-08-02T18:38:37.849Z,26.10
2022-08-02T18:41:12.656Z,26.00
2022-08-02T18:43:43.587Z,25.90
2022-08-02T18:46:15.210Z,25.80
2022-08-02T18:48:46.922Z,25.70
2022-08-02T18:51:15.533Z,25.60
2022-08-02T18:53:43.731Z,25.50
2022-08-02T18:56:20.378Z,25.30
2022-08-02T18:58:55.856Z,25.20
2022-08-02T19:01:33.554Z,25.10
2022-08-02T19:04:04.063Z,25.00
2022-08-02T19:09:24.057Z,24.80
2022-08-02T19:11:51.002Z,24.70
2022-08-02T19:14:27.533Z,24.50
2022-08-02T19:16:56.790Z,24.50
2022-08-02T19:19:28.731Z,24.30
2022-08-02T19:22:17.276Z,24.30
2022-08-02T19:24:45.898Z,24.20
2022-08-02T19:30:07.446Z,24.00
2022-08-02T19:32:39.671Z,23.90
2022-08-02T19:35:15.218Z,23.90
2022-08-02T19:37:58.960Z,23.90
2022-08-02T19:40:29.208Z,23.80
2022-08-02T19:44:22.906Z,23.70
2022-08-02T19:51:49.760Z,23.40
2022-08-02T19:54:12.141Z,23.30
2022-08-02T19:56:40.367Z,23.10
2022-08-02T19:59:12.959Z,23.00
2022-08-02T20:01:44.802Z,23.00
2022-08-02T20:07:07.240Z,22.90
2022-08-02T20:09:46.809Z,22.80
2022-08-02T20:15:14.417Z,22.60
2022-08-02T20:17:47.320Z,22.50
2022-08-02T20:20:14.910Z,22.40
2022-08-02T20:23:00.358Z,22.40
2022-08-02T20:28:22.480Z,22.30
2022-08-02T20:30:49.790Z,22.20
2022-08-02T20:33:21.040Z,22.10
2022-08-02T20:35:49.413Z,22.10
2022-08-02T20:38:16.574Z,22.00
2022-08-02T20:40:43.889Z,21.90
2022-08-02T20:43:10.762Z,21.90
2022-08-02T20:45:37.703Z,21.80
2022-08-02T20:48:05.073Z,21.80
2022-08-02T20:53:55.049Z,21.80
2022-08-02T20:56:24.160Z,21.80
2022-08-02T20:58:52.082Z,21.70
2022-08-02T21:01:21.243Z,21.60
2022-08-02T21:03:58.942Z,21.60
2022-08-02T21:06:28.222Z,21.60
2022-08-02T21:08:55.986Z,21.50
2022-08-02T21:11:25.615Z,21.50
2022-08-02T21:14:08.163Z,21.50
2022-08-02T21:19:23.819Z,21.40
2022-08-02T21:21:50.747Z,21.30
2022-08-02T21:24:17.589Z,21.30
2022-08-02T21:26:51.815Z,21.30
2022-08-02T21:29:19.638Z,21.20
2022-08-02T21:31:46.870Z,21.20
2022-08-02T21:34:22.562Z,21.20
2022-08-02T21:36:54.735Z,21.20
2022-08-02T21:39:21.789Z,21.20
2022-08-02T21:41:49.376Z,21.10
2022-08-02T21:44:17.121Z,21.00
2022-08-02T21:46:46.018Z,21.00
2022-08-02T21:49:14.654Z,21.00
2022-08-02T21:51:43.625Z,21.00
2022-08-02T21:54:17.876Z,21.00
2022-08-02T21:56:52.258Z,21.00
2022-08-02T22:02:14.535Z,20.90
2022-08-02T22:04:48.103Z,20.90
2022-08-02T22:07:17.486Z,20.80
2022-08-02T22:09:50.560Z,20.80
2022-08-02T22:12:19.419Z,20.80
2022-08-02T22:14:53.735Z,20.80
2022-08-02T22:17:51.903Z,20.80
2022-08-02T22:20:21.539Z,20.70
2022-08-02T22:22:52.248Z,20.70
2022-08-02T22:25:26.465Z,20.70
2022-08-02T22:28:38.191Z,20.60
2022-08-02T22:31:04.715Z,20.60
2022-08-02T22:34:01.304Z,20.50
2022-08-02T22:36:34.255Z,20.50
2022-08-02T22:39:02.432Z,20.50
2022-08-02T22:42:00.904Z,20.40
2022-08-02T22:44:18.519Z,20.40
2022-08-02T22:49:59.045Z,20.40
2022-08-02T22:52:26.625Z,20.30
2022-08-02T22:54:54.690Z,20.30
2022-08-02T22:57:30.918Z,20.30
2022-08-02T22:58:48.693Z,27.90
2022-08-02T22:58:50.748Z,28.10
2022-08-02T22:58:53.029Z,23.60
2022-08-02T22:59:02.309Z,21.40
2022-08-02T22:59:58.827Z,20.30
2022-08-02T23:02:25.757Z,20.30
2022-08-02T23:04:52.626Z,20.20
2022-08-02T23:07:19.357Z,20.20
2022-08-02T23:09:46.101Z,20.20
2022-08-02T23:12:15.116Z,20.20
2022-08-02T23:14:41.911Z,20.20
2022-08-02T23:17:27.199Z,20.20
2022-08-02T23:19:53.843Z,20.10
2022-08-02T23:22:24.253Z,20.10
2022-08-02T23:24:57.341Z,20.10
2022-08-02T23:27:24.274Z,20.10
2022-08-02T23:29:51.211Z,20.00
2022-08-02T23:32:18.082Z,20.00
2022-08-02T23:34:50.101Z,20.00
2022-08-02T23:37:17.258Z,20.00
2022-08-02T23:39:43.956Z,20.00
2022-08-02T23:42:10.635Z,19.90
2022-08-02T23:44:37.320Z,19.90
2022-08-02T23:47:03.986Z,19.90
2022-08-02T23:49:30.810Z,19.90
2022-08-02T23:52:01.409Z,20.00
2022-08-02T23:54:28.973Z,20.00
2022-08-02T23:56:55.835Z,19.90
2022-08-02T23:59:22.803Z,19.90
